sensor_id;sensor_type;location;lat;lon;timestamp;temperature;humidity
19552;DHT22;9921;47.186;9.778;2022-11-20T00:01:05;5.40;99.90
19552;DHT22;9921;47.186;9.778;2022-11-20T00:03:32;5.40;99.90
19552;DHT22;9921;47.186;9.778;2022-11-20T00:06:00;5.40;99.90
19552;DHT22;9921;47.186;9.778;2022-11-20T00:08:26;5.40;99.90
19552;DHT22;9921;47.186;9.778;2022-11-20T00:10:53;5.40;99.90
19552;DHT22;9921;47.186;9.778;2022-11-20T00:13:22;5.50;99.90
19552;DHT22;9921;47.186;9.778;2022-11-20T00:15:48;5.40;99.90
19552;DHT22;9921;47.186;9.778;2022-11-20T00:18:22;5.30;99.90
19552;DHT22;9921;47.186;9.778;2022-11-20T00:20:49;5.40;99.90
19552;DHT22;9921;47.186;9.778;2022-11-20T00:23:16;5.40;99.90
19552;DHT22;9921;47.186;9.778;2022-11-20T00:25:43;5.40;99.90
19552;DHT22;9921;47.186;9.778;2022-11-20T00:28:10;5.50;99.90
19552;DHT22;9921;47.186;9.778;2022-11-20T00:30:38;5.50;99.90
19552;DHT22;9921;47.186;9.778;2022-11-20T00:33:05;5.60;99.90
19552;DHT22;9921;47.186;9.778;2022-11-20T00:35:32;5.60;99.90
19552;DHT22;9921;47.186;9.778;2022-11-20T00:37:58;5.60;99.90
19552;DHT22;9921;47.186;9.778;2022-11-20T00:40:25;5.60;99.90
19552;DHT22;9921;47.186;9.778;2022-11-20T00:42:52;5.60;99.90
19552;DHT22;9921;47.186;9.778;2022-11-20T00:45:19;5.60;99.90
19552;DHT22;9921;47.186;9.778;2022-11-20T00:47:47;5.60;99.90
19552;DHT22;9921;47.186;9.778;2022-11-20T00:50:14;5.60;99.90
19552;DHT22;9921;47.186;9.778;2022-11-20T00:52:41;5.80;99.90
19552;DHT22;9921;47.186;9.778;2022-11-20T00:55:08;6.00;99.90
19552;DHT22;9921;47.186;9.778;2022-11-20T00:57:35;6.00;99.90
19552;DHT22;9921;47.186;9.778;2022-11-20T01:00:02;5.90;99.90
19552;DHT22;9921;47.186;9.778;2022-11-20T01:02:29;5.80;99.90
19552;DHT22;9921;47.186;9.778;2022-11-20T01:04:57;5.70;99.90
19552;DHT22;9921;47.186;9.778;2022-11-20T01:07:24;5.70;99.90
19552;DHT22;9921;47.186;9.778;2022-11-20T01:09:51;5.70;99.90
19552;DHT22;9921;47.186;9.778;2022-11-20T01:12:17;5.70;99.90
19552;DHT22;9921;47.186;9.778;2022-11-20T01:14:44;5.70;99.90
19552;DHT22;9921;47.186;9.778;2022-11-20T01:17:11;5.70;99.90
19552;DHT22;9921;47.186;9.778;2022-11-20T01:19:38;5.80;99.90
19552;DHT22;9921;47.186;9.778;2022-11-20T01:22:06;5.80;99.90
19552;DHT22;9921;47.186;9.778;2022-11-20T01:24:33;5.70;99.90
19552;DHT22;9921;47.186;9.778;2022-11-20T01:27:00;5.70;99.90
19552;DHT22;9921;47.186;9.778;2022-11-20T01:29:27;5.70;99.90
19552;DHT22;9921;47.186;9.778;2022-11-20T01:31:54;5.80;99.90
19552;DHT22;9921;47.186;9.778;2022-11-20T01:34:21;5.80;99.90
19552;DHT22;9921;47.186;9.778;2022-11-20T01:36:49;5.70;99.90
19552;DHT22;9921;47.186;9.778;2022-11-20T01:39:22;5.80;99.90
19552;DHT22;9921;47.186;9.778;2022-11-20T01:41:50;5.80;99.90
19552;DHT22;9921;47.186;9.778;2022-11-20T01:44:57;5.90;99.90
19552;DHT22;9921;47.186;9.778;2022-11-20T01:47:29;5.80;99.90
19552;DHT22;9921;47.186;9.778;2022-11-20T01:50:01;5.80;99.90
19552;DHT22;9921;47.186;9.778;2022-11-20T01:52:34;5.90;99.90
19552;DHT22;9921;47.186;9.778;2022-11-20T01:55:08;5.90;99.90
19552;DHT22;9921;47.186;9.778;2022-11-20T01:57:36;5.90;99.90
19552;DHT22;9921;47.186;9.778;2022-11-20T02:00:06;5.90;99.90
19552;DHT22;9921;47.186;9.778;2022-11-20T02:02:34;5.90;99.90
19552;DHT22;9921;47.186;9.778;2022-11-20T02:05:08;5.90;99.90
19552;DHT22;9921;47.186;9.778;2022-11-20T02:07:37;5.90;99.90
19552;DHT22;9921;47.186;9.778;2022-11-20T02:10:06;5.90;99.90
19552;DHT22;9921;47.186;9.778;2022-11-20T02:12:33;5.80;99.90
19552;DHT22;9921;47.186;9.778;2022-11-20T02:15:17;5.80;99.90
19552;DHT22;9921;47.186;9.778;2022-11-20T02:17:44;5.80;99.90
19552;DHT22;9921;47.186;9.778;2022-11-20T02:20:12;5.80;99.90
19552;DHT22;9921;47.186;9.778;2022-11-20T02:22:45;5.80;99.90
19552;DHT22;9921;47.186;9.778;2022-11-20T02:25:16;5.80;99.90
19552;DHT22;9921;47.186;9.778;2022-11-20T02:27:43;5.80;99.90
19552;DHT22;9921;47.186;9.778;2022-11-20T02:30:11;5.80;99.90
19552;DHT22;9921;47.186;9.778;2022-11-20T02:32:38;5.80;99.90
19552;DHT22;9921;47.186;9.778;2022-11-20T02:35:07;5.80;99.90
19552;DHT22;9921;47.186;9.778;2022-11-20T02:37:36;5.80;99.90
19552;DHT22;9921;47.186;9.778;2022-11-20T02:40:04;5.80;99.90
19552;DHT22;9921;47.186;9.778;2022-11-20T02:42:33;5.80;99.90
19552;DHT22;9921;47.186;9.778;2022-11-20T02:45:00;5.80;99.90
19552;DHT22;9921;47.186;9.778;2022-11-20T02:47:27;5.80;99.90
19552;DHT22;9921;47.186;9.778;2022-11-20T02:49:53;5.80;99.90
19552;DHT22;9921;47.186;9.778;2022-11-20T02:52:20;5.70;99.90
19552;DHT22;9921;47.186;9.778;2022-11-20T02:54:47;5.70;99.90
19552;DHT22;9921;47.186;9.778;2022-11-20T02:57:14;5.60;99.90
19552;DHT22;9921;47.186;9.778;2022-11-20T02:59:42;5.60;99.90
19552;DHT22;9921;47.186;9.778;2022-11-20T03:02:09;5.60;99.90
19552;DHT22;9921;47.186;9.778;2022-11-20T03:04:36;5.60;99.90
19552;DHT22;9921;47.186;9.778;2022-11-20T03:07:03;5.60;99.90
19552;DHT22;9921;47.186;9.778;2022-11-20T03:09:30;5.60;99.90
19552;DHT22;9921;47.186;9.778;2022-11-20T03:11:57;5.60;99.90
19552;DHT22;9921;47.186;9.778;2022-11-20T03:14:24;5.60;99.90
19552;DHT22;9921;47.186;9.778;2022-11-20T03:16:52;5.60;99.90
19552;DHT22;9921;47.186;9.778;2022-11-20T03:19:19;5.60;99.90
19552;DHT22;9921;47.186;9.778;2022-11-20T03:21:46;5.60;99.90
19552;DHT22;9921;47.186;9.778;2022-11-20T03:24:13;5.50;99.90
19552;DHT22;9921;47.186;9.778;2022-11-20T03:26:41;5.50;99.90
19552;DHT22;9921;47.186;9.778;2022-11-20T03:29:08;5.50;99.90
19552;DHT22;9921;47.186;9.778;2022-11-20T03:31:36;5.60;99.90
19552;DHT22;9921;47.186;9.778;2022-11-20T03:34:04;5.60;99.90
19552;DHT22;9921;47.186;9.778;2022-11-20T03:36:31;5.70;99.90
19552;DHT22;9921;47.186;9.778;2022-11-20T03:38:59;5.60;99.90
19552;DHT22;9921;47.186;9.778;2022-11-20T03:41:28;5.70;99.90
19552;DHT22;9921;47.186;9.778;2022-11-20T03:43:57;5.70;99.90
19552;DHT22;9921;47.186;9.778;2022-11-20T03:46:25;5.70;99.90
19552;DHT22;9921;47.186;9.778;2022-11-20T03:48:52;5.70;99.90
19552;DHT22;9921;47.186;9.778;2022-11-20T03:51:22;5.80;99.90
19552;DHT22;9921;47.186;9.778;2022-11-20T03:53:51;5.70;99.90
19552;DHT22;9921;47.186;9.778;2022-11-20T03:56:20;5.80;99.90
19552;DHT22;9921;47.186;9.778;2022-11-20T03:58:47;5.80;99.90
19552;DHT22;9921;47.186;9.778;2022-11-20T04:01:16;5.80;99.90
19552;DHT22;9921;47.186;9.778;2022-11-20T04:03:43;5.90;99.90
19552;DHT22;9921;47.186;9.778;2022-11-20T04:06:12;5.90;99.90
19552;DHT22;9921;47.186;9.778;2022-11-20T04:08:41;5.90;99.90
19552;DHT22;9921;47.186;9.778;2022-11-20T04:11:09;5.80;99.90
19552;DHT22;9921;47.186;9.778;2022-11-20T04:13:36;5.70;99.90
19552;DHT22;9921;47.186;9.778;2022-11-20T04:16:03;5.60;99.90
19552;DHT22;9921;47.186;9.778;2022-11-20T04:18:30;5.60;99.90
19552;DHT22;9921;47.186;9.778;2022-11-20T04:20:58;5.50;99.90
19552;DHT22;9921;47.186;9.778;2022-11-20T04:23:25;5.40;99.90
19552;DHT22;9921;47.186;9.778;2022-11-20T04:25:53;5.50;99.90
19552;DHT22;9921;47.186;9.778;2022-11-20T04:28:20;5.50;99.90
19552;DHT22;9921;47.186;9.778;2022-11-20T04:30:48;5.60;99.90
19552;DHT22;9921;47.186;9.778;2022-11-20T04:33:15;5.60;99.90
19552;DHT22;9921;47.186;9.778;2022-11-20T04:35:43;5.60;99.90
19552;DHT22;9921;47.186;9.778;2022-11-20T04:38:12;5.70;99.90
19552;DHT22;9921;47.186;9.778;2022-11-20T04:40:39;5.60;99.90
19552;DHT22;9921;47.186;9.778;2022-11-20T04:43:07;5.60;99.90
19552;DHT22;9921;47.186;9.778;2022-11-20T04:45:37;5.60;99.90
19552;DHT22;9921;47.186;9.778;2022-11-20T04:48:04;5.60;99.90
19552;DHT22;9921;47.186;9.778;2022-11-20T04:50:31;5.60;99.90
19552;DHT22;9921;47.186;9.778;2022-11-20T04:52:58;5.60;99.90
19552;DHT22;9921;47.186;9.778;2022-11-20T04:55:25;5.60;99.90
19552;DHT22;9921;47.186;9.778;2022-11-20T04:57:51;5.60;99.90
19552;DHT22;9921;47.186;9.778;2022-11-20T05:00:20;5.60;99.90
19552;DHT22;9921;47.186;9.778;2022-11-20T05:02:47;5.60;99.90
19552;DHT22;9921;47.186;9.778;2022-11-20T05:05:14;5.60;99.90
19552;DHT22;9921;47.186;9.778;2022-11-20T05:07:40;5.60;99.90
19552;DHT22;9921;47.186;9.778;2022-11-20T05:10:08;5.60;99.90
19552;DHT22;9921;47.186;9.778;2022-11-20T05:12:35;5.50;99.90
19552;DHT22;9921;47.186;9.778;2022-11-20T05:15:02;5.50;99.90
19552;DHT22;9921;47.186;9.778;2022-11-20T05:17:30;5.50;99.90
19552;DHT22;9921;47.186;9.778;2022-11-20T05:19:57;5.50;99.90
19552;DHT22;9921;47.186;9.778;2022-11-20T05:22:24;5.50;99.90
19552;DHT22;9921;47.186;9.778;2022-11-20T05:24:51;5.60;99.90
19552;DHT22;9921;47.186;9.778;2022-11-20T05:27:17;5.70;99.90
19552;DHT22;9921;47.186;9.778;2022-11-20T05:29:44;5.70;99.90
19552;DHT22;9921;47.186;9.778;2022-11-20T05:32:11;5.70;99.90
19552;DHT22;9921;47.186;9.778;2022-11-20T05:34:40;5.70;99.90
19552;DHT22;9921;47.186;9.778;2022-11-20T05:37:07;5.80;99.90
19552;DHT22;9921;47.186;9.778;2022-11-20T05:39:34;5.80;99.90
19552;DHT22;9921;47.186;9.778;2022-11-20T05:42:01;5.80;99.90
19552;DHT22;9921;47.186;9.778;2022-11-20T05:44:45;5.70;99.90
19552;DHT22;9921;47.186;9.778;2022-11-20T05:47:11;5.70;99.90
19552;DHT22;9921;47.186;9.778;2022-11-20T05:49:40;5.70;99.90
19552;DHT22;9921;47.186;9.778;2022-11-20T05:52:07;5.80;99.90
19552;DHT22;9921;47.186;9.778;2022-11-20T05:54:34;5.80;99.90
19552;DHT22;9921;47.186;9.778;2022-11-20T05:57:00;5.80;99.90
19552;DHT22;9921;47.186;9.778;2022-11-20T05:59:27;5.80;99.90
19552;DHT22;9921;47.186;9.778;2022-11-20T06:01:55;5.80;99.90
19552;DHT22;9921;47.186;9.778;2022-11-20T06:04:21;5.80;99.90
19552;DHT22;9921;47.186;9.778;2022-11-20T06:06:50;5.80;99.90
19552;DHT22;9921;47.186;9.778;2022-11-20T06:09:16;5.70;99.90
19552;DHT22;9921;47.186;9.778;2022-11-20T06:11:43;5.70;99.90
19552;DHT22;9921;47.186;9.778;2022-11-20T06:14:10;5.60;99.90
19552;DHT22;9921;47.186;9.778;2022-11-20T06:16:37;5.60;99.90
19552;DHT22;9921;47.186;9.778;2022-11-20T06:19:04;5.50;99.90
19552;DHT22;9921;47.186;9.778;2022-11-20T06:21:31;5.60;99.90
19552;DHT22;9921;47.186;9.778;2022-11-20T06:23:59;5.60;99.90
19552;DHT22;9921;47.186;9.778;2022-11-20T06:26:27;5.60;99.90
19552;DHT22;9921;47.186;9.778;2022-11-20T06:28:54;5.70;99.90
19552;DHT22;9921;47.186;9.778;2022-11-20T06:31:23;5.70;99.90
19552;DHT22;9921;47.186;9.778;2022-11-20T06:33:51;5.70;99.90
19552;DHT22;9921;47.186;9.778;2022-11-20T06:36:20;5.70;99.90
19552;DHT22;9921;47.186;9.778;2022-11-20T06:38:47;5.70;99.90
19552;DHT22;9921;47.186;9.778;2022-11-20T06:41:17;5.70;99.90
19552;DHT22;9921;47.186;9.778;2022-11-20T06:43:44;5.70;99.90
19552;DHT22;9921;47.186;9.778;2022-11-20T06:46:12;5.70;99.90
19552;DHT22;9921;47.186;9.778;2022-11-20T06:48:39;5.70;99.90
19552;DHT22;9921;47.186;9.778;2022-11-20T06:51:07;5.70;99.90
19552;DHT22;9921;47.186;9.778;2022-11-20T06:53:35;5.80;99.90
19552;DHT22;9921;47.186;9.778;2022-11-20T06:56:02;5.70;99.90
19552;DHT22;9921;47.186;9.778;2022-11-20T06:58:32;5.70;99.90
19552;DHT22;9921;47.186;9.778;2022-11-20T07:01:00;5.80;99.90
19552;DHT22;9921;47.186;9.778;2022-11-20T07:03:27;5.70;99.90
19552;DHT22;9921;47.186;9.778;2022-11-20T07:05:54;5.80;99.90
19552;DHT22;9921;47.186;9.778;2022-11-20T07:08:22;5.80;99.90
19552;DHT22;9921;47.186;9.778;2022-11-20T07:10:49;6.00;99.90
19552;DHT22;9921;47.186;9.778;2022-11-20T07:13:16;6.00;99.90
19552;DHT22;9921;47.186;9.778;2022-11-20T07:15:44;6.10;99.90
19552;DHT22;9921;47.186;9.778;2022-11-20T07:18:11;6.00;99.90
19552;DHT22;9921;47.186;9.778;2022-11-20T07:20:38;6.00;99.90
19552;DHT22;9921;47.186;9.778;2022-11-20T07:23:05;6.00;99.90
19552;DHT22;9921;47.186;9.778;2022-11-20T07:25:32;5.90;99.90
19552;DHT22;9921;47.186;9.778;2022-11-20T07:27:59;5.90;99.90
19552;DHT22;9921;47.186;9.778;2022-11-20T07:30:26;6.00;99.90
19552;DHT22;9921;47.186;9.778;2022-11-20T07:32:56;6.00;99.90
19552;DHT22;9921;47.186;9.778;2022-11-20T07:35:24;6.00;99.90
19552;DHT22;9921;47.186;9.778;2022-11-20T07:37:54;6.10;99.90
19552;DHT22;9921;47.186;9.778;2022-11-20T07:40:21;6.20;99.90
19552;DHT22;9921;47.186;9.778;2022-11-20T07:42:48;6.20;99.90
19552;DHT22;9921;47.186;9.778;2022-11-20T07:45:16;6.20;99.90
19552;DHT22;9921;47.186;9.778;2022-11-20T07:47:42;6.30;99.90
19552;DHT22;9921;47.186;9.778;2022-11-20T07:50:11;6.30;99.90
19552;DHT22;9921;47.186;9.778;2022-11-20T07:52:39;6.30;99.90
19552;DHT22;9921;47.186;9.778;2022-11-20T07:55:07;6.40;99.90
19552;DHT22;9921;47.186;9.778;2022-11-20T07:57:34;6.50;99.90
19552;DHT22;9921;47.186;9.778;2022-11-20T08:00:02;6.50;99.90
19552;DHT22;9921;47.186;9.778;2022-11-20T08:02:30;6.60;99.90
19552;DHT22;9921;47.186;9.778;2022-11-20T08:04:57;6.70;99.90
19552;DHT22;9921;47.186;9.778;2022-11-20T08:07:25;6.80;99.90
19552;DHT22;9921;47.186;9.778;2022-11-20T08:09:51;6.90;99.90
19552;DHT22;9921;47.186;9.778;2022-11-20T08:12:19;7.00;99.90
19552;DHT22;9921;47.186;9.778;2022-11-20T08:15:05;7.10;99.90
19552;DHT22;9921;47.186;9.778;2022-11-20T08:17:33;7.10;99.90
19552;DHT22;9921;47.186;9.778;2022-11-20T08:20:00;7.10;99.90
19552;DHT22;9921;47.186;9.778;2022-11-20T08:22:28;7.00;99.90
19552;DHT22;9921;47.186;9.778;2022-11-20T08:24:55;7.10;99.90
19552;DHT22;9921;47.186;9.778;2022-11-20T08:27:22;7.10;99.90
19552;DHT22;9921;47.186;9.778;2022-11-20T08:29:49;7.20;99.90
19552;DHT22;9921;47.186;9.778;2022-11-20T08:32:16;7.30;99.90
19552;DHT22;9921;47.186;9.778;2022-11-20T08:34:43;7.40;99.90
19552;DHT22;9921;47.186;9.778;2022-11-20T08:37:10;7.50;99.90
19552;DHT22;9921;47.186;9.778;2022-11-20T08:39:38;7.50;99.90
19552;DHT22;9921;47.186;9.778;2022-11-20T08:42:06;7.40;99.90
19552;DHT22;9921;47.186;9.778;2022-11-20T08:44:34;7.30;99.90
19552;DHT22;9921;47.186;9.778;2022-11-20T08:47:00;7.30;99.90
19552;DHT22;9921;47.186;9.778;2022-11-20T08:49:27;7.30;99.90
19552;DHT22;9921;47.186;9.778;2022-11-20T08:51:54;7.30;99.90
19552;DHT22;9921;47.186;9.778;2022-11-20T08:54:21;7.30;99.90
19552;DHT22;9921;47.186;9.778;2022-11-20T08:56:49;7.40;99.90
19552;DHT22;9921;47.186;9.778;2022-11-20T08:59:16;7.50;99.90
19552;DHT22;9921;47.186;9.778;2022-11-20T09:01:43;7.50;99.90
19552;DHT22;9921;47.186;9.778;2022-11-20T09:04:10;7.60;99.90
19552;DHT22;9921;47.186;9.778;2022-11-20T09:06:39;7.90;99.90
19552;DHT22;9921;47.186;9.778;2022-11-20T09:09:06;8.10;99.90
19552;DHT22;9921;47.186;9.778;2022-11-20T09:11:34;8.30;99.90
19552;DHT22;9921;47.186;9.778;2022-11-20T09:14:03;8.60;99.90
19552;DHT22;9921;47.186;9.778;2022-11-20T09:16:30;8.80;99.90
19552;DHT22;9921;47.186;9.778;2022-11-20T09:18:58;9.10;99.90
19552;DHT22;9921;47.186;9.778;2022-11-20T09:21:25;9.30;99.90
19552;DHT22;9921;47.186;9.778;2022-11-20T09:23:52;9.50;99.90
19552;DHT22;9921;47.186;9.778;2022-11-20T09:26:19;9.60;99.90
19552;DHT22;9921;47.186;9.778;2022-11-20T09:28:46;9.70;99.90
19552;DHT22;9921;47.186;9.778;2022-11-20T09:31:20;9.70;99.90
19552;DHT22;9921;47.186;9.778;2022-11-20T09:33:48;9.70;99.90
19552;DHT22;9921;47.186;9.778;2022-11-20T09:36:15;9.60;99.90
19552;DHT22;9921;47.186;9.778;2022-11-20T09:38:44;9.50;99.90
19552;DHT22;9921;47.186;9.778;2022-11-20T09:41:26;9.50;99.90
19552;DHT22;9921;47.186;9.778;2022-11-20T09:44:00;9.50;99.90
19552;DHT22;9921;47.186;9.778;2022-11-20T09:46:38;9.50;99.90
19552;DHT22;9921;47.186;9.778;2022-11-20T09:49:19;9.40;99.90
19552;DHT22;9921;47.186;9.778;2022-11-20T09:51:57;9.50;99.90
19552;DHT22;9921;47.186;9.778;2022-11-20T09:54:27;9.60;99.90
19552;DHT22;9921;47.186;9.778;2022-11-20T09:56:59;9.70;99.90
19552;DHT22;9921;47.186;9.778;2022-11-20T09:59:33;9.70;99.90
19552;DHT22;9921;47.186;9.778;2022-11-20T10:02:14;9.80;99.90
19552;DHT22;9921;47.186;9.778;2022-11-20T10:04:45;10.00;99.90
19552;DHT22;9921;47.186;9.778;2022-11-20T10:07:17;9.90;99.90
19552;DHT22;9921;47.186;9.778;2022-11-20T10:09:51;9.80;99.90
19552;DHT22;9921;47.186;9.778;2022-11-20T10:12:27;9.80;99.90
19552;DHT22;9921;47.186;9.778;2022-11-20T10:15:16;9.70;99.90
19552;DHT22;9921;47.186;9.778;2022-11-20T10:18:09;9.60;99.90
19552;DHT22;9921;47.186;9.778;2022-11-20T10:20:43;9.60;99.90
19552;DHT22;9921;47.186;9.778;2022-11-20T10:23:43;9.90;99.90
19552;DHT22;9921;47.186;9.778;2022-11-20T10:26:20;10.10;99.90
19552;DHT22;9921;47.186;9.778;2022-11-20T10:29:01;10.20;99.90
19552;DHT22;9921;47.186;9.778;2022-11-20T10:31:34;10.10;99.90
19552;DHT22;9921;47.186;9.778;2022-11-20T10:34:06;10.20;99.90
19552;DHT22;9921;47.186;9.778;2022-11-20T10:36:36;10.20;99.90
19552;DHT22;9921;47.186;9.778;2022-11-20T10:39:07;10.10;99.90
19552;DHT22;9921;47.186;9.778;2022-11-20T10:41:41;10.00;99.90
19552;DHT22;9921;47.186;9.778;2022-11-20T10:44:11;10.00;99.90
19552;DHT22;9921;47.186;9.778;2022-11-20T10:46:40;10.00;99.90
19552;DHT22;9921;47.186;9.778;2022-11-20T10:49:13;9.80;99.90
19552;DHT22;9921;47.186;9.778;2022-11-20T10:51:52;9.80;99.90
19552;DHT22;9921;47.186;9.778;2022-11-20T10:54:26;9.80;99.90
19552;DHT22;9921;47.186;9.778;2022-11-20T10:57:01;9.70;99.90
19552;DHT22;9921;47.186;9.778;2022-11-20T10:59:55;9.60;99.90
19552;DHT22;9921;47.186;9.778;2022-11-20T11:02:33;9.50;99.90
19552;DHT22;9921;47.186;9.778;2022-11-20T11:07:54;9.40;99.90
19552;DHT22;9921;47.186;9.778;2022-11-20T11:10:26;9.50;99.90
19552;DHT22;9921;47.186;9.778;2022-11-20T11:12:55;9.70;99.90
19552;DHT22;9921;47.186;9.778;2022-11-20T11:15:27;9.70;99.90
19552;DHT22;9921;47.186;9.778;2022-11-20T11:17:55;9.70;99.90
19552;DHT22;9921;47.186;9.778;2022-11-20T11:20:25;9.70;99.90
19552;DHT22;9921;47.186;9.778;2022-11-20T11:22:53;9.60;99.90
19552;DHT22;9921;47.186;9.778;2022-11-20T11:25:29;9.50;99.90
19552;DHT22;9921;47.186;9.778;2022-11-20T11:28:00;9.40;99.90
19552;DHT22;9921;47.186;9.778;2022-11-20T11:30:29;9.30;99.90
19552;DHT22;9921;47.186;9.778;2022-11-20T11:33:05;9.20;99.90
19552;DHT22;9921;47.186;9.778;2022-11-20T11:35:43;9.10;99.90
19552;DHT22;9921;47.186;9.778;2022-11-20T11:38:14;9.20;99.90
19552;DHT22;9921;47.186;9.778;2022-11-20T11:40:42;9.20;99.90
19552;DHT22;9921;47.186;9.778;2022-11-20T11:43:17;9.20;99.90
19552;DHT22;9921;47.186;9.778;2022-11-20T11:46:00;9.20;99.90
19552;DHT22;9921;47.186;9.778;2022-11-20T11:48:27;9.30;99.90
19552;DHT22;9921;47.186;9.778;2022-11-20T11:50:55;9.40;99.90
19552;DHT22;9921;47.186;9.778;2022-11-20T11:53:23;9.40;99.90
19552;DHT22;9921;47.186;9.778;2022-11-20T11:55:56;9.50;99.90
19552;DHT22;9921;47.186;9.778;2022-11-20T11:58:34;9.50;99.90
19552;DHT22;9921;47.186;9.778;2022-11-20T12:01:15;9.60;99.90
19552;DHT22;9921;47.186;9.778;2022-11-20T12:03:54;9.70;99.90
19552;DHT22;9921;47.186;9.778;2022-11-20T12:06:25;9.70;99.90
19552;DHT22;9921;47.186;9.778;2022-11-20T12:08:59;9.80;99.90
19552;DHT22;9921;47.186;9.778;2022-11-20T12:11:32;9.90;99.90
19552;DHT22;9921;47.186;9.778;2022-11-20T12:14:08;10.10;99.90
19552;DHT22;9921;47.186;9.778;2022-11-20T12:16:37;10.40;99.90
19552;DHT22;9921;47.186;9.778;2022-11-20T12:19:08;10.70;99.90
19552;DHT22;9921;47.186;9.778;2022-11-20T12:21:46;10.80;99.90
19552;DHT22;9921;47.186;9.778;2022-11-20T12:24:42;11.00;99.90
19552;DHT22;9921;47.186;9.778;2022-11-20T12:30:17;11.20;99.90
19552;DHT22;9921;47.186;9.778;2022-11-20T12:36:06;11.10;99.90
19552;DHT22;9921;47.186;9.778;2022-11-20T12:45:06;11.30;99.90
19552;DHT22;9921;47.186;9.778;2022-11-20T12:47:50;11.30;99.90
19552;DHT22;9921;47.186;9.778;2022-11-20T12:50:30;11.30;99.90
19552;DHT22;9921;47.186;9.778;2022-11-20T12:53:02;11.20;99.90
19552;DHT22;9921;47.186;9.778;2022-11-20T12:55:40;11.10;99.90
19552;DHT22;9921;47.186;9.778;2022-11-20T12:58:12;10.90;99.90
19552;DHT22;9921;47.186;9.778;2022-11-20T13:00:52;10.70;99.90
19552;DHT22;9921;47.186;9.778;2022-11-20T13:03:38;10.60;99.90
19552;DHT22;9921;47.186;9.778;2022-11-20T13:06:14;10.50;99.90
19552;DHT22;9921;47.186;9.778;2022-11-20T13:08:45;10.40;99.90
19552;DHT22;9921;47.186;9.778;2022-11-20T13:11:19;10.30;99.90
19552;DHT22;9921;47.186;9.778;2022-11-20T13:14:09;10.20;99.90
19552;DHT22;9921;47.186;9.778;2022-11-20T13:16:42;10.00;99.90
19552;DHT22;9921;47.186;9.778;2022-11-20T13:19:14;9.90;99.90
19552;DHT22;9921;47.186;9.778;2022-11-20T13:21:42;9.80;99.90
19552;DHT22;9921;47.186;9.778;2022-11-20T13:24:22;9.80;99.90
19552;DHT22;9921;47.186;9.778;2022-11-20T13:27:02;9.80;99.90
19552;DHT22;9921;47.186;9.778;2022-11-20T13:29:29;9.70;99.90
19552;DHT22;9921;47.186;9.778;2022-11-20T13:32:04;9.70;99.90
19552;DHT22;9921;47.186;9.778;2022-11-20T13:34:34;9.70;99.90
19552;DHT22;9921;47.186;9.778;2022-11-20T13:37:02;9.70;99.90
19552;DHT22;9921;47.186;9.778;2022-11-20T13:39:31;9.70;99.90
19552;DHT22;9921;47.186;9.778;2022-11-20T13:42:00;9.70;99.90
19552;DHT22;9921;47.186;9.778;2022-11-20T13:44:33;9.70;99.90
19552;DHT22;9921;47.186;9.778;2022-11-20T13:47:03;9.70;99.90
19552;DHT22;9921;47.186;9.778;2022-11-20T13:49:32;9.70;99.90
19552;DHT22;9921;47.186;9.778;2022-11-20T13:52:29;9.70;99.90
19552;DHT22;9921;47.186;9.778;2022-11-20T13:55:10;9.70;99.90
19552;DHT22;9921;47.186;9.778;2022-11-20T14:00:43;9.80;99.90
19552;DHT22;9921;47.186;9.778;2022-11-20T14:03:17;9.80;99.90
19552;DHT22;9921;47.186;9.778;2022-11-20T14:05:50;9.80;99.90
19552;DHT22;9921;47.186;9.778;2022-11-20T14:08:25;9.70;99.90
19552;DHT22;9921;47.186;9.778;2022-11-20T14:11:03;9.60;99.90
19552;DHT22;9921;47.186;9.778;2022-11-20T14:13:32;9.50;99.90
19552;DHT22;9921;47.186;9.778;2022-11-20T14:15:59;9.30;99.90
19552;DHT22;9921;47.186;9.778;2022-11-20T14:18:26;9.10;99.90
19552;DHT22;9921;47.186;9.778;2022-11-20T14:20:54;9.10;99.90
19552;DHT22;9921;47.186;9.778;2022-11-20T14:23:25;9.00;99.90
19552;DHT22;9921;47.186;9.778;2022-11-20T14:25:52;8.90;99.90
19552;DHT22;9921;47.186;9.778;2022-11-20T14:28:25;8.80;99.90
19552;DHT22;9921;47.186;9.778;2022-11-20T14:30:54;8.50;99.90
19552;DHT22;9921;47.186;9.778;2022-11-20T14:33:22;8.50;99.90
19552;DHT22;9921;47.186;9.778;2022-11-20T14:35:52;8.40;99.90
19552;DHT22;9921;47.186;9.778;2022-11-20T14:38:24;8.30;99.90
19552;DHT22;9921;47.186;9.778;2022-11-20T14:40:52;8.20;99.90
19552;DHT22;9921;47.186;9.778;2022-11-20T14:43:22;8.10;99.90
19552;DHT22;9921;47.186;9.778;2022-11-20T14:45:57;8.00;99.90
19552;DHT22;9921;47.186;9.778;2022-11-20T14:48:29;8.00;99.90
19552;DHT22;9921;47.186;9.778;2022-11-20T14:50:58;7.90;99.90
19552;DHT22;9921;47.186;9.778;2022-11-20T14:53:25;7.90;99.90
19552;DHT22;9921;47.186;9.778;2022-11-20T14:55:57;7.80;99.90
19552;DHT22;9921;47.186;9.778;2022-11-20T14:58:26;7.80;99.90
19552;DHT22;9921;47.186;9.778;2022-11-20T15:00:57;7.80;99.90
19552;DHT22;9921;47.186;9.778;2022-11-20T15:03:31;7.80;99.90
19552;DHT22;9921;47.186;9.778;2022-11-20T15:05:59;7.70;99.90
19552;DHT22;9921;47.186;9.778;2022-11-20T15:08:26;7.60;99.90
19552;DHT22;9921;47.186;9.778;2022-11-20T15:10:53;7.50;99.90
19552;DHT22;9921;47.186;9.778;2022-11-20T15:13:25;7.20;99.90
19552;DHT22;9921;47.186;9.778;2022-11-20T15:15:54;7.10;99.90
19552;DHT22;9921;47.186;9.778;2022-11-20T15:18:24;6.90;99.90
19552;DHT22;9921;47.186;9.778;2022-11-20T15:20:54;6.80;99.90
19552;DHT22;9921;47.186;9.778;2022-11-20T15:23:22;6.80;99.90
19552;DHT22;9921;47.186;9.778;2022-11-20T15:25:49;6.70;99.90
19552;DHT22;9921;47.186;9.778;2022-11-20T15:28:18;6.50;99.90
19552;DHT22;9921;47.186;9.778;2022-11-20T15:30:46;6.40;99.90
19552;DHT22;9921;47.186;9.778;2022-11-20T15:33:13;6.40;99.90
19552;DHT22;9921;47.186;9.778;2022-11-20T15:35:42;6.30;99.90
19552;DHT22;9921;47.186;9.778;2022-11-20T15:38:09;6.30;99.90
19552;DHT22;9921;47.186;9.778;2022-11-20T15:40:36;6.20;99.90
19552;DHT22;9921;47.186;9.778;2022-11-20T15:43:04;6.30;99.90
19552;DHT22;9921;47.186;9.778;2022-11-20T15:45:37;6.40;99.90
19552;DHT22;9921;47.186;9.778;2022-11-20T15:48:09;6.40;99.90
19552;DHT22;9921;47.186;9.778;2022-11-20T15:50:38;6.30;99.90
19552;DHT22;9921;47.186;9.778;2022-11-20T15:53:08;6.20;99.90
19552;DHT22;9921;47.186;9.778;2022-11-20T15:55:36;6.20;99.90
19552;DHT22;9921;47.186;9.778;2022-11-20T15:58:03;6.20;99.90
19552;DHT22;9921;47.186;9.778;2022-11-20T16:00:29;6.20;99.90
19552;DHT22;9921;47.186;9.778;2022-11-20T16:02:56;6.20;99.90
19552;DHT22;9921;47.186;9.778;2022-11-20T16:05:23;6.20;99.90
19552;DHT22;9921;47.186;9.778;2022-11-20T16:07:51;6.10;99.90
19552;DHT22;9921;47.186;9.778;2022-11-20T16:10:19;6.10;99.90
19552;DHT22;9921;47.186;9.778;2022-11-20T16:12:46;6.10;99.90
19552;DHT22;9921;47.186;9.778;2022-11-20T16:15:31;6.00;99.90
19552;DHT22;9921;47.186;9.778;2022-11-20T16:18:16;6.00;99.90
19552;DHT22;9921;47.186;9.778;2022-11-20T16:20:43;6.00;99.90
19552;DHT22;9921;47.186;9.778;2022-11-20T16:23:10;5.90;99.90
19552;DHT22;9921;47.186;9.778;2022-11-20T16:25:39;5.90;99.90
19552;DHT22;9921;47.186;9.778;2022-11-20T16:28:06;5.80;99.90
19552;DHT22;9921;47.186;9.778;2022-11-20T16:30:34;5.80;99.90
19552;DHT22;9921;47.186;9.778;2022-11-20T16:33:02;5.80;99.90
19552;DHT22;9921;47.186;9.778;2022-11-20T16:35:31;5.70;99.90